Time;durP1;ratioP1;P1;durP2;ratioP2;P2;SDS_P1;SDS_P2;PMS_P1;PMS_P2;Temp;Humidity;BMP_temperature;BMP_pressure;BME280_temperature;BME280_humidity;BME280_pressure;Samples;Min_cycle;Max_cycle;Signal;HPM_P1;HPM_P2
2021/12/21 00:01:55;;;;;;;4.90;2.03;;;19.20;63.10;;;;;;10584308;28;20047;-57
2021/12/21 00:07:01;;;;;;;6.05;2.25;;;19.20;63.20;;;;;;10584223;28;20434;-57
2021/12/21 00:12:07;;;;;;;4.72;2.05;;;19.20;63.20;;;;;;10584368;28;20044;-56
2021/12/21 00:17:31;;;;;;;4.25;2.00;;;19.20;63.20;;;;;;10585894;28;20092;-59
2021/12/21 00:27:52;;;;;;;3.75;1.90;;;19.10;63.30;;;;;;10583351;28;20043;-57
2021/12/21 00:32:57;;;;;;;;;;;19.10;63.50;;;;;;10567735;28;20093;-56
2021/12/21 00:38:04;;;;;;;4.60;1.65;;;19.00;63.40;;;;;;10583559;28;19919;-57
2021/12/21 00:43:10;;;;;;;5.43;1.70;;;19.00;63.50;;;;;;10582675;28;20400;-56
2021/12/21 00:48:16;;;;;;;2.63;1.50;;;19.00;63.50;;;;;;10583562;28;20446;-57
2021/12/21 00:53:22;;;;;;;5.57;1.63;;;19.00;63.60;;;;;;10582978;28;20039;-57
2021/12/21 00:58:28;;;;;;;4.38;1.45;;;19.00;63.60;;;;;;10582437;28;20104;-57
2021/12/21 01:03:36;;;;;;;6.78;1.80;;;18.90;63.60;;;;;;10582822;28;20481;-57
2021/12/21 01:19:22;;;;;;;2.38;1.42;;;18.90;63.80;;;;;;10580675;28;20047;-57
2021/12/21 01:24:40;;;;;;;3.35;1.20;;;18.90;63.80;;;;;;10581244;28;20400;-56
2021/12/21 01:29:58;;;;;;;8.47;1.30;;;18.80;63.80;;;;;;10563090;28;20047;-57
2021/12/21 01:35:15;;;;;;;5.65;1.58;;;18.80;63.80;;;;;;10581079;28;20749;-57
2021/12/21 01:40:33;;;;;;;1.92;1.20;;;18.80;63.90;;;;;;10562962;28;20040;-57
2021/12/21 01:51:13;;;;;;;3.65;1.40;;;18.80;63.90;;;;;;10526356;28;20069;-56
2021/12/21 01:56:20;;;;;;;5.43;1.70;;;18.70;63.90;;;;;;10580128;28;20048;-56
2021/12/21 02:01:27;;;;;;;6.10;1.40;;;18.70;64.00;;;;;;10587349;28;20040;-57
2021/12/21 02:06:31;;;;;;;2.80;1.38;;;18.70;64.00;;;;;;10588149;28;20081;-57
2021/12/21 02:11:37;;;;;;;4.05;1.63;;;18.60;63.90;;;;;;10587757;28;20044;-57
2021/12/21 02:17:04;;;;;;;2.58;1.30;;;18.60;63.90;;;;;;10569735;28;20055;-57
2021/12/21 02:22:14;;;;;;;3.42;1.33;;;18.60;64.00;;;;;;10586988;28;20446;-57
2021/12/21 02:27:29;;;;;;;5.70;2.33;;;18.60;64.00;;;;;;10587073;28;20097;-57
2021/12/21 02:32:34;;;;;;;6.03;1.30;;;18.50;64.00;;;;;;10587036;28;20048;-57
2021/12/21 02:37:40;;;;;;;2.58;1.33;;;18.60;64.10;;;;;;10586856;28;20055;-57
2021/12/21 02:42:44;;;;;;;4.63;1.80;;;18.50;64.10;;;;;;10586562;28;20052;-57
2021/12/21 02:47:50;;;;;;;2.60;1.10;;;18.50;64.20;;;;;;10585640;28;20051;-57
2021/12/21 02:52:56;;;;;;;2.88;1.52;;;18.50;64.20;;;;;;10586246;28;20089;-57
2021/12/21 02:58:01;;;;;;;1.88;0.95;;;18.50;64.30;;;;;;10585928;28;20044;-57
2021/12/21 03:03:12;;;;;;;1.90;1.25;;;18.50;64.40;;;;;;10568005;28;20055;-57
2021/12/21 03:08:22;;;;;;;2.08;1.20;;;18.50;64.40;;;;;;10584552;28;20483;-56
2021/12/21 03:18:55;;;;;;;5.78;1.40;;;18.40;64.50;;;;;;10584332;28;20488;-56
2021/12/21 03:24:00;;;;;;;5.60;1.50;;;18.40;64.60;;;;;;10584836;28;20039;-57
2021/12/21 03:29:06;;;;;;;3.45;1.27;;;18.40;64.60;;;;;;10584150;28;20116;-56
2021/12/21 03:34:11;;;;;;;10.60;1.33;;;18.40;64.70;;;;;;10583843;28;20043;-56
2021/12/21 03:39:20;;;;;;;2.55;1.25;;;18.40;64.70;;;;;;10584228;28;20065;-56
2021/12/21 03:44:27;;;;;;;6.07;1.50;;;18.30;64.70;;;;;;10584224;28;20092;-57
2021/12/21 03:54:41;;;;;;;6.20;1.35;;;18.30;64.70;;;;;;10583290;28;20043;-57
2021/12/21 03:59:48;;;;;;;4.13;1.47;;;18.30;64.70;;;;;;10594533;27;20051;-56
2021/12/21 04:04:57;;;;;;;6.65;1.27;;;18.30;64.80;;;;;;10624903;27;20072;-56
2021/12/21 04:10:02;;;;;;;;;;;18.30;64.70;;;;;;10622274;27;20411;-56
2021/12/21 04:15:07;;;;;;;3.10;1.05;;;18.30;64.70;;;;;;10606353;27;19919;-57
2021/12/21 04:20:12;;;;;;;5.50;1.30;;;18.40;64.70;;;;;;10623587;27;20043;-57
2021/12/21 04:25:17;;;;;;;6.03;1.10;;;18.50;64.70;;;;;;10622311;27;20438;-56
2021/12/21 04:30:22;;;;;;;13.77;4.03;;;18.60;64.70;;;;;;10621824;27;20051;-57
2021/12/21 04:35:27;;;;;;;6.68;1.45;;;18.70;64.60;;;;;;10624333;27;20096;-56
2021/12/21 04:40:46;;;;;;;2.47;1.10;;;18.80;64.40;;;;;;10606258;27;20055;-56
2021/12/21 04:45:50;;;;;;;2.00;0.80;;;18.90;64.30;;;;;;10623879;27;20116;-56
2021/12/21 04:50:56;;;;;;;3.13;1.10;;;19.00;64.20;;;;;;10623877;27;20124;-57
2021/12/21 04:56:03;;;;;;;20.90;1.40;;;19.10;64.10;;;;;;10573023;28;20035;-56
2021/12/21 05:01:08;;;;;;;6.93;0.90;;;19.20;64.10;;;;;;10620320;28;20450;-56
2021/12/21 05:06:15;;;;;;;2.10;0.85;;;19.30;64.00;;;;;;10622685;28;20039;-56
2021/12/21 05:11:21;;;;;;;6.05;0.90;;;19.40;64.10;;;;;;10620618;28;20043;-57
2021/12/21 05:16:25;;;;;;;2.83;0.70;;;19.40;64.20;;;;;;10622721;28;20449;-56
2021/12/21 05:21:31;;;;;;;7.95;1.25;;;19.40;64.30;;;;;;10622883;28;20110;-57
2021/12/21 05:26:37;;;;;;;284.60;114.38;;;19.40;64.20;;;;;;10516277;28;20129;-57
2021/12/21 05:31:42;;;;;;;2.15;0.80;;;19.50;64.20;;;;;;10535590;28;20082;-57
2021/12/21 05:36:47;;;;;;;1.98;0.55;;;19.50;64.30;;;;;;10542295;28;20138;-57
2021/12/21 05:41:54;;;;;;;4.95;1.35;;;19.60;64.30;;;;;;10542354;28;20093;-57
2021/12/21 05:47:00;;;;;;;5.57;0.80;;;19.60;64.20;;;;;;10541606;28;20077;-57
2021/12/21 05:52:06;;;;;;;2.35;0.60;;;19.60;64.00;;;;;;10524537;28;20363;-57
2021/12/21 05:57:12;;;;;;;1.05;0.65;;;19.70;63.80;;;;;;10541561;28;20048;-57
2021/12/21 06:02:17;;;;;;;3.60;1.30;;;19.80;63.60;;;;;;10575050;27;20047;-57
2021/12/21 06:07:22;;;;;;;6.50;1.30;;;19.90;63.80;;;;;;10629891;27;20047;-58
2021/12/21 06:13:00;;;;;;;14.77;1.17;;;19.90;64.10;;;;;;10630325;27;20487;-57
2021/12/21 06:28:43;;;;;;;11.27;1.05;;;19.90;65.00;;;;;;10629132;27;20043;-57
2021/12/21 06:33:50;;;;;;;7.25;0.98;;;19.90;64.90;;;;;;10611068;27;20039;-57
2021/12/21 06:38:55;;;;;;;40.25;1.60;;;20.00;64.80;;;;;;10628686;27;20399;-57
2021/12/21 06:44:01;;;;;;;4.45;1.10;;;20.00;64.50;;;;;;10629250;27;20104;-57
2021/12/21 06:54:30;;;;;;;4.55;0.90;;;20.00;64.10;;;;;;10628705;27;20039;-57
2021/12/21 06:59:35;;;;;;;1.98;0.85;;;19.90;64.10;;;;;;10627828;27;20099;-57
2021/12/21 07:04:40;;;;;;;4.72;0.80;;;19.90;64.10;;;;;;10610739;27;20050;-57
2021/12/21 07:09:54;;;;;;;4.25;0.90;;;19.80;64.00;;;;;;10628615;27;20069;-57
2021/12/21 07:20:22;;;;;;;2.53;1.10;;;19.80;64.00;;;;;;10627548;27;20043;-57
2021/12/21 07:25:28;;;;;;;2.00;0.82;;;19.70;63.90;;;;;;10628528;27;20060;-57
2021/12/21 07:30:33;;;;;;;3.00;0.80;;;19.70;64.00;;;;;;10626794;27;20043;-57
2021/12/21 07:35:38;;;;;;;7.60;1.05;;;19.60;63.80;;;;;;10626941;27;20047;-57
2021/12/21 07:40:43;;;;;;;1.75;1.00;;;19.60;63.80;;;;;;10626802;27;20092;-57
2021/12/21 07:45:48;;;;;;;1.88;1.00;;;19.60;63.80;;;;;;10608416;27;20043;-57
2021/12/21 07:50:54;;;;;;;3.88;1.00;;;19.50;63.80;;;;;;10626326;27;20047;-58
2021/12/21 07:56:02;;;;;;;1.48;1.00;;;19.50;63.80;;;;;;10607504;27;20047;-57
2021/12/21 08:01:07;;;;;;;1.15;0.88;;;19.40;63.70;;;;;;10626619;27;20143;-57
2021/12/21 08:06:13;;;;;;;1.23;0.95;;;19.40;63.70;;;;;;10626351;27;20043;-57
2021/12/21 08:16:41;;;;;;;1.80;1.00;;;19.40;63.70;;;;;;10607530;27;20043;-57
2021/12/21 08:21:46;;;;;;;2.50;1.20;;;19.30;63.70;;;;;;10607137;27;20055;-57
2021/12/21 08:26:51;;;;;;;1.50;1.08;;;19.30;63.70;;;;;;10608017;27;20050;-57
2021/12/21 08:31:56;;;;;;;1.85;1.10;;;19.30;63.70;;;;;;10624338;27;20055;-57
2021/12/21 08:37:01;;;;;;;1.02;0.85;;;19.20;63.70;;;;;;10624753;27;20043;-57
2021/12/21 08:42:13;;;;;;;1.33;1.05;;;19.20;63.60;;;;;;10624579;27;20445;-57
2021/12/21 08:47:19;;;;;;;2.08;1.17;;;19.20;63.60;;;;;;10623509;27;20043;-57
2021/12/21 08:52:24;;;;;;;2.78;1.42;;;19.20;63.60;;;;;;10624487;27;20380;-57
2021/12/21 08:57:29;;;;;;;1.65;1.13;;;19.10;63.60;;;;;;10623557;28;20404;-57
2021/12/21 09:02:37;;;;;;;3.17;1.30;;;19.10;63.60;;;;;;10624612;28;20387;-57
2021/12/21 09:07:47;;;;;;;1.92;1.08;;;19.10;63.60;;;;;;10626837;27;20043;-57
2021/12/21 09:12:56;;;;;;;2.15;1.25;;;19.00;63.60;;;;;;10615581;27;20392;-57
2021/12/21 09:18:01;;;;;;;2.47;1.48;;;19.00;63.60;;;;;;10633063;27;20077;-57
2021/12/21 09:23:06;;;;;;;2.30;1.30;;;19.00;63.60;;;;;;10632464;27;20047;-57
2021/12/21 09:28:11;;;;;;;1.63;1.23;;;19.00;63.60;;;;;;10632695;27;20043;-57
2021/12/21 09:33:16;;;;;;;1.77;1.27;;;19.00;63.60;;;;;;10632139;27;20468;-57
2021/12/21 09:38:21;;;;;;;1.48;1.10;;;19.10;63.50;;;;;;10631344;27;20047;-57
2021/12/21 09:43:26;;;;;;;2.35;1.25;;;19.20;63.40;;;;;;10631561;27;20062;-57
2021/12/21 09:48:31;;;;;;;1.42;1.25;;;19.30;63.30;;;;;;10631900;27;20463;-57
2021/12/21 09:53:37;;;;;;;2.90;1.35;;;19.40;63.10;;;;;;10613422;27;20064;-57
2021/12/21 09:58:42;;;;;;;2.10;1.27;;;19.50;63.10;;;;;;10631033;27;20043;-57
2021/12/21 10:03:48;;;;;;;3.60;1.55;;;19.60;63.00;;;;;;10630234;27;20059;-57
2021/12/21 10:09:05;;;;;;;2.63;1.50;;;19.60;62.90;;;;;;10630524;27;20039;-57
2021/12/21 10:14:19;;;;;;;2.10;1.45;;;19.70;62.80;;;;;;10630529;27;20035;-57
2021/12/21 10:19:24;;;;;;;2.20;1.48;;;19.80;62.70;;;;;;10628729;27;20051;-57
2021/12/21 10:24:29;;;;;;;3.38;1.30;;;19.80;62.60;;;;;;10612167;27;20043;-57
2021/12/21 10:29:56;;;;;;;3.42;1.30;;;19.90;62.60;;;;;;10629777;27;20039;-57
2021/12/21 10:35:08;;;;;;;3.17;1.60;;;19.90;62.60;;;;;;10611195;27;20051;-57
2021/12/21 10:40:17;;;;;;;8.35;1.55;;;19.90;62.60;;;;;;10629318;27;20084;-57
2021/12/21 10:45:37;;;;;;;5.05;1.55;;;19.80;62.50;;;;;;10625432;27;20039;-57
2021/12/21 10:50:47;;;;;;;1.27;1.10;;;19.90;62.50;;;;;;10611148;27;20547;-57
2021/12/21 10:56:06;;;;;;;2.35;1.42;;;19.80;62.50;;;;;;10610554;27;20039;-57
2021/12/21 11:01:23;;;;;;;2.33;1.70;;;19.80;62.50;;;;;;10628026;27;20043;-57
2021/12/21 11:06:33;;;;;;;2.10;1.40;;;19.90;62.50;;;;;;10628203;27;20039;-57
2021/12/21 11:11:47;;;;;;;2.38;1.60;;;19.90;62.50;;;;;;10627531;27;20406;-57
2021/12/21 11:16:52;;;;;;;3.85;1.98;;;19.90;62.50;;;;;;10628830;27;20186;-57
2021/12/21 11:21:58;;;;;;;2.53;1.63;;;19.90;62.50;;;;;;10609633;27;20517;-57
2021/12/21 11:27:03;;;;;;;3.10;1.85;;;19.80;62.40;;;;;;10609435;27;20039;-57
2021/12/21 11:32:09;;;;;;;5.93;2.17;;;19.80;62.50;;;;;;10626302;27;20076;-57
2021/12/21 11:37:20;;;;;;;2.65;1.80;;;19.80;62.50;;;;;;10608918;27;20047;-57
2021/12/21 11:42:45;;;;;;;2.95;2.20;;;19.80;62.50;;;;;;10627315;27;20392;-57
2021/12/21 11:47:59;;;;;;;4.85;2.50;;;19.70;62.50;;;;;;10626496;27;20039;-57
2021/12/21 11:53:07;;;;;;;4.40;2.70;;;19.70;62.50;;;;;;10626390;27;20039;-57
2021/12/21 11:58:26;;;;;;;3.95;2.90;;;19.70;62.50;;;;;;10626264;27;20408;-57
2021/12/21 12:03:34;;;;;;;7.35;3.13;;;19.60;62.50;;;;;;10625493;27;20073;-57
2021/12/21 12:08:50;;;;;;;;;;;19.60;62.50;;;;;;10626138;27;20040;-57
2021/12/21 12:14:11;;;;;;;3.78;2.42;;;19.60;63.10;;;;;;10625604;27;20348;-57
2021/12/21 12:19:22;;;;;;;4.30;2.88;;;19.60;62.50;;;;;;10625231;27;20092;-57
2021/12/21 12:24:34;;;;;;;5.55;2.72;;;19.50;62.60;;;;;;10626384;27;20039;-57
2021/12/21 12:29:56;;;;;;;4.70;2.72;;;19.50;62.60;;;;;;10606587;27;20400;-57
2021/12/21 12:35:02;;;;;;;5.25;3.58;;;19.50;62.60;;;;;;10607055;27;20061;-57
2021/12/21 12:40:11;;;;;;;4.72;3.22;;;19.50;62.60;;;;;;10624791;27;20051;-57
2021/12/21 12:45:20;;;;;;;6.20;4.07;;;19.50;62.70;;;;;;10624481;27;20042;-57
2021/12/21 12:50:28;;;;;;;6.22;3.78;;;19.40;62.60;;;;;;10624412;27;20107;-57
2021/12/21 12:55:45;;;;;;;4.82;3.17;;;19.50;62.60;;;;;;10606240;27;20039;-57
2021/12/21 13:01:19;;;;;;;5.18;3.35;;;19.60;62.50;;;;;;10624727;28;20047;-57
2021/12/21 13:06:27;;;;;;;4.88;3.70;;;19.60;62.40;;;;;;10623773;28;20047;-57
2021/12/21 13:11:35;;;;;;;5.93;3.72;;;19.60;62.40;;;;;;10624118;28;20078;-57
2021/12/21 13:16:41;;;;;;;5.85;3.65;;;19.50;62.40;;;;;;10605657;28;20043;-57
2021/12/21 13:21:54;;;;;;;3.45;2.80;;;19.50;62.40;;;;;;10623286;28;20063;-57
2021/12/21 13:27:03;;;;;;;5.60;3.67;;;19.50;63.20;;;;;;10624024;28;20043;-57
2021/12/21 13:32:09;;;;;;;7.35;4.10;;;19.40;62.40;;;;;;10623278;28;20047;-57
2021/12/21 13:37:19;;;;;;;8.95;4.70;;;19.40;62.50;;;;;;10623145;28;20064;-57
2021/12/21 13:42:27;;;;;;;10.10;4.65;;;19.40;62.60;;;;;;10622785;28;20048;-57
2021/12/21 13:47:43;;;;;;;7.70;4.27;;;19.40;62.60;;;;;;10623320;28;20054;-57
2021/12/21 13:52:58;;;;;;;11.15;5.28;;;19.40;62.60;;;;;;10624497;27;20043;-57
2021/12/21 13:58:07;;;;;;;9.48;5.15;;;19.30;62.60;;;;;;10632910;27;20371;-57
2021/12/21 14:03:31;;;;;;;10.57;4.72;;;19.30;62.60;;;;;;10612719;27;20544;-57
2021/12/21 14:08:38;;;;;;;10.35;4.65;;;19.20;62.60;;;;;;10612434;27;20035;-57
2021/12/21 14:13:46;;;;;;;10.40;4.93;;;19.20;62.70;;;;;;10630036;27;20047;-57
2021/12/21 14:18:58;;;;;;;9.55;4.72;;;19.20;62.60;;;;;;10597949;27;20047;-57
2021/12/21 14:24:09;;;;;;;8.32;4.47;;;19.20;62.60;;;;;;10612180;27;20100;-57
2021/12/21 14:29:18;;;;;;;6.45;3.83;;;19.10;62.60;;;;;;10629930;27;20080;-57
2021/12/21 14:34:29;;;;;;;6.47;3.72;;;19.10;62.70;;;;;;10629662;27;20043;-57
2021/12/21 14:39:36;;;;;;;6.53;3.58;;;19.10;62.80;;;;;;10611321;27;20039;-57
2021/12/21 14:44:55;;;;;;;8.35;4.43;;;19.00;62.70;;;;;;10629224;27;20061;-57
2021/12/21 14:50:10;;;;;;;6.75;3.97;;;19.00;62.80;;;;;;10628489;27;20047;-57
2021/12/21 14:55:23;;;;;;;9.35;4.10;;;19.00;62.80;;;;;;10610414;27;20047;-57
2021/12/21 15:00:30;;;;;;;6.10;3.80;;;18.90;62.80;;;;;;10612615;27;20042;-57
2021/12/21 15:05:38;;;;;;;7.80;4.30;;;18.90;62.80;;;;;;10628349;27;20043;-57
2021/12/21 15:10:44;;;;;;;7.38;4.18;;;18.90;62.80;;;;;;10628295;27;20039;-57
2021/12/21 15:15:50;;;;;;;8.00;4.30;;;18.90;62.90;;;;;;10610450;27;20560;-57
2021/12/21 15:20:54;;;;;;;6.05;4.00;;;18.80;63.40;;;;;;10627250;27;20043;-57
2021/12/21 15:25:59;;;;;;;6.93;4.10;;;18.80;62.80;;;;;;10609642;27;20055;-57
2021/12/21 15:31:04;;;;;;;6.65;4.13;;;18.80;62.90;;;;;;10628535;27;20039;-57
2021/12/21 15:36:09;;;;;;;7.10;4.25;;;18.70;62.80;;;;;;10626545;27;20051;-57
2021/12/21 15:41:14;;;;;;;11.23;5.03;;;18.80;62.90;;;;;;10626846;27;20560;-57
2021/12/21 15:46:20;;;;;;;7.13;4.43;;;18.80;62.80;;;;;;10626158;27;20492;-57
2021/12/21 15:51:25;;;;;;;6.72;4.50;;;18.90;62.80;;;;;;10626586;27;20076;-57
2021/12/21 15:56:30;;;;;;;8.75;5.25;;;19.00;62.80;;;;;;10626559;27;20043;-57
2021/12/21 16:01:35;;;;;;;7.90;4.90;;;19.10;62.70;;;;;;10626035;27;20054;-57
2021/12/21 16:06:41;;;;;;;7.97;5.60;;;19.20;62.50;;;;;;10626308;27;20046;-57
2021/12/21 16:11:47;;;;;;;10.40;6.38;;;19.20;62.40;;;;;;10624903;27;20112;-57
2021/12/21 16:16:54;;;;;;;11.07;7.00;;;19.40;62.40;;;;;;10624800;27;20047;-57
2021/12/21 16:22:02;;;;;;;12.57;7.70;;;19.40;62.30;;;;;;10625304;27;20044;-57
2021/12/21 16:27:16;;;;;;;13.43;8.40;;;19.40;62.20;;;;;;10625091;27;20096;-57
2021/12/21 16:32:21;;;;;;;16.15;8.45;;;19.50;62.70;;;;;;10625099;27;20061;-57
2021/12/21 16:37:26;;;;;;;15.43;8.52;;;19.60;62.10;;;;;;10624262;27;20104;-57
2021/12/21 16:42:30;;;;;;;13.60;8.20;;;19.60;62.00;;;;;;10606068;27;20484;-57
2021/12/21 16:47:35;;;;;;;14.23;8.48;;;19.70;62.00;;;;;;10606651;27;20073;-57
2021/12/21 16:52:40;;;;;;;13.38;7.97;;;19.80;61.90;;;;;;10623959;27;20047;-57
2021/12/21 16:57:45;;;;;;;13.30;8.48;;;19.80;61.90;;;;;;10624282;27;20058;-57
2021/12/21 17:02:51;;;;;;;11.77;7.53;;;19.80;61.80;;;;;;10624224;28;20054;-57
2021/12/21 17:07:56;;;;;;;10.55;6.43;;;19.90;61.80;;;;;;10624142;28;20039;-57
2021/12/21 17:13:01;;;;;;;7.57;5.03;;;19.80;61.90;;;;;;10606063;28;20047;-57
2021/12/21 17:18:07;;;;;;;6.95;4.28;;;19.80;61.90;;;;;;10623139;28;20047;-57
2021/12/21 17:23:11;;;;;;;6.13;3.90;;;19.80;62.00;;;;;;10624672;28;20043;-57
2021/12/21 17:28:16;;;;;;;5.13;3.63;;;19.90;62.00;;;;;;10625051;27;20039;-57
2021/12/21 17:33:21;;;;;;;5.07;3.15;;;19.80;62.00;;;;;;10614150;27;20047;-57
2021/12/21 17:38:29;;;;;;;6.15;3.65;;;19.80;62.10;;;;;;10631865;27;20047;-57
2021/12/21 17:43:35;;;;;;;7.75;4.50;;;19.80;61.90;;;;;;10613456;27;20437;-57
2021/12/21 17:48:40;;;;;;;6.90;4.57;;;19.80;61.90;;;;;;10631667;27;20047;-57
2021/12/21 17:53:45;;;;;;;8.10;5.18;;;19.80;61.80;;;;;;10631148;27;20050;-57
2021/12/21 17:58:50;;;;;;;8.98;5.65;;;19.80;61.90;;;;;;10630919;27;20047;-57
2021/12/21 18:03:55;;;;;;;9.45;6.18;;;19.80;61.90;;;;;;10630118;27;20088;-57
2021/12/21 18:09:01;;;;;;;12.00;7.18;;;19.70;61.90;;;;;;10595439;27;20047;-57
2021/12/21 18:14:06;;;;;;;11.98;7.60;;;19.70;61.90;;;;;;10630857;27;20043;-57
2021/12/21 18:19:11;;;;;;;13.38;8.32;;;19.70;61.90;;;;;;10629278;27;20051;-57
2021/12/21 18:24:16;;;;;;;13.10;8.15;;;19.60;61.90;;;;;;10630025;27;20104;-57
2021/12/21 18:29:21;;;;;;;12.60;7.88;;;19.60;61.90;;;;;;10611639;27;20039;-57
2021/12/21 18:34:27;;;;;;;11.57;7.13;;;19.60;61.90;;;;;;10629647;27;20047;-57
2021/12/21 18:39:32;;;;;;;9.85;6.72;;;19.60;62.00;;;;;;10629305;27;20047;-57
2021/12/21 18:44:39;;;;;;;8.80;6.10;;;19.50;62.20;;;;;;10594428;27;20043;-57
2021/12/21 18:49:44;;;;;;;7.63;4.65;;;19.40;62.40;;;;;;10628420;27;20395;-57
2021/12/21 18:54:48;;;;;;;8.25;4.82;;;19.40;62.40;;;;;;10628405;27;20047;-57
2021/12/21 18:59:53;;;;;;;5.85;3.80;;;19.30;62.40;;;;;;10628588;27;20399;-57
2021/12/21 19:04:58;;;;;;;4.25;3.30;;;19.30;62.50;;;;;;10610093;27;20100;-57
2021/12/21 19:10:06;;;;;;;6.35;4.05;;;19.30;62.50;;;;;;10628165;27;20035;-57
2021/12/21 19:15:11;;;;;;;6.35;3.75;;;19.30;62.40;;;;;;10627827;27;20043;-57
2021/12/21 19:20:18;;;;;;;6.00;4.10;;;19.20;62.30;;;;;;10628780;27;20047;-57
2021/12/21 19:25:23;;;;;;;6.13;3.87;;;19.20;62.20;;;;;;10626993;27;20107;-57
2021/12/21 19:30:29;;;;;;;5.72;3.88;;;19.20;62.40;;;;;;10628364;27;20046;-57
2021/12/21 19:35:35;;;;;;;7.05;4.40;;;19.10;62.30;;;;;;10627105;27;20043;-57
2021/12/21 19:40:41;;;;;;;5.32;3.70;;;19.10;62.30;;;;;;10627509;27;20097;-57
2021/12/21 19:45:46;;;;;;;7.65;4.72;;;19.10;62.40;;;;;;10626646;27;20068;-57
2021/12/21 19:50:51;;;;;;;6.40;4.28;;;19.00;62.30;;;;;;10625049;27;20104;-57
2021/12/21 19:55:57;;;;;;;5.80;4.00;;;19.00;62.40;;;;;;10626331;27;20533;-57
2021/12/21 20:01:02;;;;;;;8.88;5.32;;;19.00;62.40;;;;;;10609832;27;20404;-57
2021/12/21 20:06:10;;;;;;;10.00;5.72;;;18.90;62.40;;;;;;10625274;27;20051;-57
2021/12/21 20:11:19;;;;;;;13.32;7.07;;;18.90;62.40;;;;;;10625072;27;20072;-57
2021/12/21 20:16:25;;;;;;;15.27;8.82;;;18.90;62.40;;;;;;10625372;27;20445;-57
2021/12/21 20:21:30;;;;;;;18.65;10.15;;;18.90;62.40;;;;;;10624991;27;20046;-57
2021/12/21 20:26:35;;;;;;;23.88;12.40;;;18.80;62.40;;;;;;10625893;27;20051;-57
2021/12/21 20:31:40;;;;;;;25.33;12.85;;;18.80;62.40;;;;;;10625007;27;20039;-57
2021/12/21 20:36:45;;;;;;;21.95;11.68;;;18.80;62.40;;;;;;10606784;27;20043;-57
2021/12/21 20:41:50;;;;;;;23.35;11.60;;;18.80;62.50;;;;;;10624700;27;20046;-57
2021/12/21 20:46:55;;;;;;;20.75;10.40;;;18.70;62.50;;;;;;10624043;27;20508;-57
2021/12/21 20:52:02;;;;;;;18.85;10.52;;;18.70;62.50;;;;;;10623865;27;20051;-57
2021/12/21 20:57:07;;;;;;;18.95;10.48;;;18.70;62.50;;;;;;10623761;27;20484;-57
2021/12/21 21:02:13;;;;;;;18.80;10.45;;;18.60;62.60;;;;;;10609202;27;20047;-57
2021/12/21 21:07:21;;;;;;;17.93;9.50;;;18.60;63.20;;;;;;10637699;27;20059;-57
2021/12/21 21:12:25;;;;;;;17.38;9.80;;;18.60;62.60;;;;;;10638359;27;20039;-57
2021/12/21 21:17:30;;;;;;;18.65;8.98;;;18.60;62.70;;;;;;10637923;27;20088;-57
2021/12/21 21:22:36;;;;;;;15.43;8.82;;;18.60;62.60;;;;;;10637493;27;20050;-57
2021/12/21 21:27:42;;;;;;;17.35;9.57;;;18.50;62.60;;;;;;10619929;27;20403;-57
2021/12/21 21:32:47;;;;;;;16.67;9.38;;;18.50;62.60;;;;;;10637857;27;20039;-57
2021/12/21 21:37:52;;;;;;;17.90;10.07;;;18.50;62.50;;;;;;10620253;27;20464;-57
2021/12/21 21:42:57;;;;;;;16.52;8.95;;;18.50;62.50;;;;;;10636969;27;20051;-57
2021/12/21 21:48:02;;;;;;;17.08;9.23;;;18.50;62.50;;;;;;10637585;27;20050;-57
2021/12/21 21:58:31;;;;;;;15.43;8.60;;;18.40;62.50;;;;;;10636735;27;20096;-57
2021/12/21 22:03:37;;;;;;;13.88;7.57;;;18.40;62.60;;;;;;10637645;27;20099;-57
2021/12/21 22:08:43;;;;;;;15.77;7.70;;;18.40;62.50;;;;;;10637156;27;20046;-57
2021/12/21 22:13:48;;;;;;;11.57;6.60;;;18.40;62.50;;;;;;10635668;27;20047;-57
2021/12/21 22:18:53;;;;;;;14.35;7.70;;;18.30;62.50;;;;;;10613077;27;20112;-57
2021/12/21 22:23:58;;;;;;;12.95;6.43;;;18.30;62.50;;;;;;10630298;27;20096;-57
2021/12/21 22:29:05;;;;;;;10.63;5.80;;;18.30;62.50;;;;;;10630538;27;20129;-57
2021/12/21 22:34:13;;;;;;;10.70;5.75;;;18.30;62.60;;;;;;10629471;27;20096;-57
2021/12/21 22:39:18;;;;;;;9.15;5.35;;;18.20;62.60;;;;;;10628930;27;20055;-57
2021/12/21 22:44:23;;;;;;;9.18;5.25;;;18.20;62.60;;;;;;10629281;27;20047;-57
2021/12/21 22:49:28;;;;;;;10.75;6.00;;;18.20;62.60;;;;;;10629042;27;20043;-57
2021/12/21 22:54:33;;;;;;;9.55;5.22;;;18.10;62.50;;;;;;10628287;27;20076;-57
2021/12/21 22:59:38;;;;;;;10.02;5.80;;;18.20;62.60;;;;;;10628079;27;20560;-57
2021/12/21 23:04:43;;;;;;;10.27;5.43;;;18.10;62.70;;;;;;10628480;27;20051;-57
2021/12/21 23:09:48;;;;;;;11.07;5.53;;;18.10;62.70;;;;;;10628601;27;20039;-57
2021/12/21 23:14:54;;;;;;;10.85;5.40;;;18.10;62.70;;;;;;10628042;27;20047;-57
2021/12/21 23:19:59;;;;;;;10.63;5.65;;;18.10;62.70;;;;;;10627947;27;20050;-57
2021/12/21 23:25:06;;;;;;;12.63;6.07;;;18.10;62.70;;;;;;10609312;27;20043;-57
2021/12/21 23:30:11;;;;;;;12.25;7.15;;;18.00;62.70;;;;;;10609364;27;20084;-57
2021/12/21 23:35:16;;;;;;;23.88;11.27;;;18.00;62.70;;;;;;10627275;27;20043;-57
2021/12/21 23:40:22;;;;;;;24.20;12.30;;;18.00;62.80;;;;;;10627007;27;20050;-57
2021/12/21 23:45:27;;;;;;;22.55;10.43;;;18.00;62.70;;;;;;10626248;27;20047;-57
2021/12/21 23:50:33;;;;;;;21.10;10.48;;;18.00;62.60;;;;;;10626579;27;20453;-57
2021/12/21 23:55:37;;;;;;;20.00;10.35;;;17.90;62.70;;;;;;10627049;27;20061;-57
